<?xml version="1.0" encoding="UTF-8" standalone="no" ?>
<gpx xmlns="http://www.topografix.com/GPX/1/1" xmlns:xsi="http://www.w3.org/2001/XMLSchema-instance" xsi:schemaLocation="http://www.topografix.com/GPX/1/1 http://www.topografix.com/GPX/1/1/gpx.xsd" version="1.1" creator="VisuGPX - https://www.visugpx.com">
  <metadata>
    <name>Trail des piqueurs 11 km</name>
    <desc><![CDATA[1 ere partie assez raide]]></desc>
  </metadata>
  <trk>
    <name><![CDATA[23-MARS-14 10:59:23 AM]]></name>
    <trkseg>
      <trkpt lat="45.64499" lon="3.43542">
        <ele>685.56</ele>
        <time>2014-03-23T08:25:06Z</time>
      </trkpt>
      <trkpt lat="45.64499" lon="3.43542">
        <ele>687</ele>
        <time>2014-03-23T08:25:08Z</time>
      </trkpt>
      <trkpt lat="45.64498" lon="3.43541">
        <ele>691.81</ele>
        <time>2014-03-23T08:25:23Z</time>
      </trkpt>
      <trkpt lat="45.64499" lon="3.43541">
        <ele>687</ele>
        <time>2014-03-23T08:25:24Z</time>
      </trkpt>
      <trkpt lat="45.64498" lon="3.43541">
        <ele>686.04</ele>
        <time>2014-03-23T08:25:39Z</time>
      </trkpt>
      <trkpt lat="45.64499" lon="3.43541">
        <ele>686.52</ele>
        <time>2014-03-23T08:26:00Z</time>
      </trkpt>
      <trkpt lat="45.64499" lon="3.43542">
        <ele>686.52</ele>
        <time>2014-03-23T08:26:20Z</time>
      </trkpt>
      <trkpt lat="45.64499" lon="3.43542">
        <ele>686.04</ele>
        <time>2014-03-23T08:26:40Z</time>
      </trkpt>
      <trkpt lat="45.64499" lon="3.43542">
        <ele>686.52</ele>
        <time>2014-03-23T08:27:02Z</time>
      </trkpt>
      <trkpt lat="45.64499" lon="3.43542">
        <ele>686.52</ele>
        <time>2014-03-23T08:27:22Z</time>
      </trkpt>
      <trkpt lat="45.64498" lon="3.43541">
        <ele>686.04</ele>
        <time>2014-03-23T08:27:41Z</time>
      </trkpt>
      <trkpt lat="45.64498" lon="3.43542">
        <ele>686.04</ele>
        <time>2014-03-23T08:27:59Z</time>
      </trkpt>
      <trkpt lat="45.64497" lon="3.43542">
        <ele>686.52</ele>
        <time>2014-03-23T08:28:15Z</time>
      </trkpt>
      <trkpt lat="45.64496" lon="3.43541">
        <ele>686.52</ele>
        <time>2014-03-23T08:28:27Z</time>
      </trkpt>
      <trkpt lat="45.64495" lon="3.4354">
        <ele>686.04</ele>
        <time>2014-03-23T08:28:41Z</time>
      </trkpt>
      <trkpt lat="45.64494" lon="3.43539">
        <ele>686.52</ele>
        <time>2014-03-23T08:28:58Z</time>
      </trkpt>
      <trkpt lat="45.64494" lon="3.43537">
        <ele>686.52</ele>
        <time>2014-03-23T08:29:13Z</time>
      </trkpt>
      <trkpt lat="45.64494" lon="3.43537">
        <ele>686.52</ele>
        <time>2014-03-23T08:29:33Z</time>
      </trkpt>
      <trkpt lat="45.64494" lon="3.43539">
        <ele>686.04</ele>
        <time>2014-03-23T08:29:50Z</time>
      </trkpt>
      <trkpt lat="45.64493" lon="3.43539">
        <ele>686.04</ele>
        <time>2014-03-23T08:30:11Z</time>
      </trkpt>
      <trkpt lat="45.64493" lon="3.43538">
        <ele>686.52</ele>
        <time>2014-03-23T08:30:31Z</time>
      </trkpt>
      <trkpt lat="45.64494" lon="3.43537">
        <ele>685.08</ele>
        <time>2014-03-23T08:30:56Z</time>
      </trkpt>
      <trkpt lat="45.64492" lon="3.43535">
        <ele>689.4</ele>
        <time>2014-03-23T08:31:12Z</time>
      </trkpt>
      <trkpt lat="45.64491" lon="3.43534">
        <ele>686.04</ele>
        <time>2014-03-23T08:31:14Z</time>
      </trkpt>
      <trkpt lat="45.64492" lon="3.43537">
        <ele>683.63</ele>
        <time>2014-03-23T08:31:34Z</time>
      </trkpt>
      <trkpt lat="45.64492" lon="3.43537">
        <ele>690.84</ele>
        <time>2014-03-23T08:31:35Z</time>
      </trkpt>
      <trkpt lat="45.64492" lon="3.43537">
        <ele>686.52</ele>
        <time>2014-03-23T08:31:36Z</time>
      </trkpt>
      <trkpt lat="45.64492" lon="3.43538">
        <ele>686.52</ele>
        <time>2014-03-23T08:32:00Z</time>
      </trkpt>
      <trkpt lat="45.64492" lon="3.43539">
        <ele>686.04</ele>
        <time>2014-03-23T08:32:19Z</time>
      </trkpt>
      <trkpt lat="45.64492" lon="3.43538">
        <ele>686.52</ele>
        <time>2014-03-23T08:32:42Z</time>
      </trkpt>
      <trkpt lat="45.64492" lon="3.43539">
        <ele>686.04</ele>
        <time>2014-03-23T08:33:03Z</time>
      </trkpt>
      <trkpt lat="45.64492" lon="3.43539">
        <ele>686.04</ele>
        <time>2014-03-23T08:33:30Z</time>
      </trkpt>
      <trkpt lat="45.64492" lon="3.43539">
        <ele>686.04</ele>
        <time>2014-03-23T08:33:49Z</time>
      </trkpt>
      <trkpt lat="45.64492" lon="3.43539">
        <ele>686.52</ele>
        <time>2014-03-23T08:34:12Z</time>
      </trkpt>
      <trkpt lat="45.64492" lon="3.4354">
        <ele>686.52</ele>
        <time>2014-03-23T08:34:38Z</time>
      </trkpt>
      <trkpt lat="45.64492" lon="3.4354">
        <ele>686.04</ele>
        <time>2014-03-23T08:35:04Z</time>
      </trkpt>
      <trkpt lat="45.64492" lon="3.43539">
        <ele>686.52</ele>
        <time>2014-03-23T08:35:28Z</time>
      </trkpt>
      <trkpt lat="45.64492" lon="3.43539">
        <ele>686.04</ele>
        <time>2014-03-23T08:35:48Z</time>
      </trkpt>
      <trkpt lat="45.64491" lon="3.43539">
        <ele>686.52</ele>
        <time>2014-03-23T08:36:11Z</time>
      </trkpt>
      <trkpt lat="45.64491" lon="3.43539">
        <ele>686.52</ele>
        <time>2014-03-23T08:36:33Z</time>
      </trkpt>
      <trkpt lat="45.64486" lon="3.43538">
        <ele>686.52</ele>
        <time>2014-03-23T08:36:44Z</time>
      </trkpt>
      <trkpt lat="45.64453" lon="3.43524">
        <ele>685.08</ele>
        <time>2014-03-23T08:37:02Z</time>
      </trkpt>
      <trkpt lat="45.64427" lon="3.43503">
        <ele>684.12</ele>
        <time>2014-03-23T08:37:17Z</time>
      </trkpt>
      <trkpt lat="45.6439" lon="3.43471">
        <ele>682.67</ele>
        <time>2014-03-23T08:37:35Z</time>
      </trkpt>
      <trkpt lat="45.64368" lon="3.43432">
        <ele>681.71</ele>
        <time>2014-03-23T08:37:50Z</time>
      </trkpt>
      <trkpt lat="45.6436" lon="3.43408">
        <ele>679.79</ele>
        <time>2014-03-23T08:37:58Z</time>
      </trkpt>
      <trkpt lat="45.64348" lon="3.43382">
        <ele>676.42</ele>
        <time>2014-03-23T08:38:05Z</time>
      </trkpt>
      <trkpt lat="45.64334" lon="3.43359">
        <ele>673.54</ele>
        <time>2014-03-23T08:38:14Z</time>
      </trkpt>
      <trkpt lat="45.64316" lon="3.4335">
        <ele>670.66</ele>
        <time>2014-03-23T08:38:22Z</time>
      </trkpt>
      <trkpt lat="45.64277" lon="3.4333">
        <ele>667.77</ele>
        <time>2014-03-23T08:38:38Z</time>
      </trkpt>
      <trkpt lat="45.64236" lon="3.43308">
        <ele>666.81</ele>
        <time>2014-03-23T08:38:54Z</time>
      </trkpt>
      <trkpt lat="45.64199" lon="3.43289">
        <ele>664.89</ele>
        <time>2014-03-23T08:39:09Z</time>
      </trkpt>
      <trkpt lat="45.64169" lon="3.43276">
        <ele>661.52</ele>
        <time>2014-03-23T08:39:21Z</time>
      </trkpt>
      <trkpt lat="45.64137" lon="3.43261">
        <ele>659.6</ele>
        <time>2014-03-23T08:39:34Z</time>
      </trkpt>
      <trkpt lat="45.64113" lon="3.43244">
        <ele>662.01</ele>
        <time>2014-03-23T08:39:47Z</time>
      </trkpt>
      <trkpt lat="45.64111" lon="3.43243">
        <ele>662.01</ele>
        <time>2014-03-23T08:39:48Z</time>
      </trkpt>
      <trkpt lat="45.64077" lon="3.4323">
        <ele>665.37</ele>
        <time>2014-03-23T08:40:04Z</time>
      </trkpt>
      <trkpt lat="45.64037" lon="3.43221">
        <ele>664.41</ele>
        <time>2014-03-23T08:40:19Z</time>
      </trkpt>
      <trkpt lat="45.64008" lon="3.43204">
        <ele>661.52</ele>
        <time>2014-03-23T08:40:32Z</time>
      </trkpt>
      <trkpt lat="45.6399" lon="3.43191">
        <ele>658.16</ele>
        <time>2014-03-23T08:40:41Z</time>
      </trkpt>
      <trkpt lat="45.63988" lon="3.43189">
        <ele>657.68</ele>
        <time>2014-03-23T08:40:42Z</time>
      </trkpt>
      <trkpt lat="45.63977" lon="3.43177">
        <ele>655.28</ele>
        <time>2014-03-23T08:40:48Z</time>
      </trkpt>
      <trkpt lat="45.63953" lon="3.43159">
        <ele>652.39</ele>
        <time>2014-03-23T08:40:59Z</time>
      </trkpt>
      <trkpt lat="45.6395" lon="3.43155">
        <ele>651.91</ele>
        <time>2014-03-23T08:41:01Z</time>
      </trkpt>
      <trkpt lat="45.63949" lon="3.43144">
        <ele>651.43</ele>
        <time>2014-03-23T08:41:05Z</time>
      </trkpt>
      <trkpt lat="45.63941" lon="3.43125">
        <ele>653.35</ele>
        <time>2014-03-23T08:41:19Z</time>
      </trkpt>
      <trkpt lat="45.63937" lon="3.43078">
        <ele>651.91</ele>
        <time>2014-03-23T08:41:33Z</time>
      </trkpt>
      <trkpt lat="45.6394" lon="3.43051">
        <ele>648.07</ele>
        <time>2014-03-23T08:41:43Z</time>
      </trkpt>
      <trkpt lat="45.63943" lon="3.43043">
        <ele>646.62</ele>
        <time>2014-03-23T08:41:46Z</time>
      </trkpt>
      <trkpt lat="45.63954" lon="3.43021">
        <ele>643.26</ele>
        <time>2014-03-23T08:41:54Z</time>
      </trkpt>
      <trkpt lat="45.63957" lon="3.43016">
        <ele>642.3</ele>
        <time>2014-03-23T08:41:56Z</time>
      </trkpt>
      <trkpt lat="45.6396" lon="3.43007">
        <ele>641.82</ele>
        <time>2014-03-23T08:41:59Z</time>
      </trkpt>
      <trkpt lat="45.63947" lon="3.42992">
        <ele>638.45</ele>
        <time>2014-03-23T08:42:10Z</time>
      </trkpt>
      <trkpt lat="45.63925" lon="3.42996">
        <ele>638.45</ele>
        <time>2014-03-23T08:42:26Z</time>
      </trkpt>
      <trkpt lat="45.63897" lon="3.42977">
        <ele>640.38</ele>
        <time>2014-03-23T08:42:44Z</time>
      </trkpt>
      <trkpt lat="45.63874" lon="3.42975">
        <ele>643.26</ele>
        <time>2014-03-23T08:42:58Z</time>
      </trkpt>
      <trkpt lat="45.63838" lon="3.42962">
        <ele>643.26</ele>
        <time>2014-03-23T08:43:19Z</time>
      </trkpt>
      <trkpt lat="45.63816" lon="3.42951">
        <ele>646.62</ele>
        <time>2014-03-23T08:43:30Z</time>
      </trkpt>
      <trkpt lat="45.63787" lon="3.42943">
        <ele>649.99</ele>
        <time>2014-03-23T08:43:47Z</time>
      </trkpt>
      <trkpt lat="45.63778" lon="3.42939">
        <ele>650.95</ele>
        <time>2014-03-23T08:43:52Z</time>
      </trkpt>
      <trkpt lat="45.63772" lon="3.4293">
        <ele>654.8</ele>
        <time>2014-03-23T08:44:00Z</time>
      </trkpt>
      <trkpt lat="45.63771" lon="3.42927">
        <ele>655.28</ele>
        <time>2014-03-23T08:44:02Z</time>
      </trkpt>
      <trkpt lat="45.63768" lon="3.42914">
        <ele>658.64</ele>
        <time>2014-03-23T08:44:09Z</time>
      </trkpt>
      <trkpt lat="45.63767" lon="3.4291">
        <ele>659.6</ele>
        <time>2014-03-23T08:44:13Z</time>
      </trkpt>
      <trkpt lat="45.63763" lon="3.42905">
        <ele>662.97</ele>
        <time>2014-03-23T08:44:22Z</time>
      </trkpt>
      <trkpt lat="45.63755" lon="3.42905">
        <ele>666.33</ele>
        <time>2014-03-23T08:44:31Z</time>
      </trkpt>
      <trkpt lat="45.6374" lon="3.42899">
        <ele>669.22</ele>
        <time>2014-03-23T08:44:46Z</time>
      </trkpt>
      <trkpt lat="45.63735" lon="3.42893">
        <ele>670.66</ele>
        <time>2014-03-23T08:44:52Z</time>
      </trkpt>
      <trkpt lat="45.63721" lon="3.42888">
        <ele>674.02</ele>
        <time>2014-03-23T08:45:01Z</time>
      </trkpt>
      <trkpt lat="45.63716" lon="3.42886">
        <ele>675.46</ele>
        <time>2014-03-23T08:45:04Z</time>
      </trkpt>
      <trkpt lat="45.63702" lon="3.42885">
        <ele>678.83</ele>
        <time>2014-03-23T08:45:13Z</time>
      </trkpt>
      <trkpt lat="45.63697" lon="3.42885">
        <ele>679.31</ele>
        <time>2014-03-23T08:45:16Z</time>
      </trkpt>
      <trkpt lat="45.63679" lon="3.42886">
        <ele>682.67</ele>
        <time>2014-03-23T08:45:26Z</time>
      </trkpt>
      <trkpt lat="45.63666" lon="3.42888">
        <ele>686.52</ele>
        <time>2014-03-23T08:45:38Z</time>
      </trkpt>
      <trkpt lat="45.63651" lon="3.4288">
        <ele>689.4</ele>
        <time>2014-03-23T08:45:50Z</time>
      </trkpt>
      <trkpt lat="45.63636" lon="3.42876">
        <ele>692.77</ele>
        <time>2014-03-23T08:46:01Z</time>
      </trkpt>
      <trkpt lat="45.63613" lon="3.42884">
        <ele>696.13</ele>
        <time>2014-03-23T08:46:17Z</time>
      </trkpt>
      <trkpt lat="45.63587" lon="3.42897">
        <ele>699.5</ele>
        <time>2014-03-23T08:46:32Z</time>
      </trkpt>
      <trkpt lat="45.63576" lon="3.42911">
        <ele>699.5</ele>
        <time>2014-03-23T08:46:40Z</time>
      </trkpt>
      <trkpt lat="45.63567" lon="3.42942">
        <ele>699.98</ele>
        <time>2014-03-23T08:46:51Z</time>
      </trkpt>
      <trkpt lat="45.63566" lon="3.42948">
        <ele>700.94</ele>
        <time>2014-03-23T08:46:53Z</time>
      </trkpt>
      <trkpt lat="45.63561" lon="3.42974">
        <ele>703.82</ele>
        <time>2014-03-23T08:47:06Z</time>
      </trkpt>
      <trkpt lat="45.63538" lon="3.42936">
        <ele>703.82</ele>
        <time>2014-03-23T08:47:21Z</time>
      </trkpt>
      <trkpt lat="45.63532" lon="3.42886">
        <ele>704.3</ele>
        <time>2014-03-23T08:47:35Z</time>
      </trkpt>
      <trkpt lat="45.63541" lon="3.42853">
        <ele>704.3</ele>
        <time>2014-03-23T08:47:47Z</time>
      </trkpt>
      <trkpt lat="45.63551" lon="3.42793">
        <ele>703.34</ele>
        <time>2014-03-23T08:48:06Z</time>
      </trkpt>
      <trkpt lat="45.63562" lon="3.42741">
        <ele>699.98</ele>
        <time>2014-03-23T08:48:19Z</time>
      </trkpt>
      <trkpt lat="45.63567" lon="3.42722">
        <ele>698.53</ele>
        <time>2014-03-23T08:48:24Z</time>
      </trkpt>
      <trkpt lat="45.63575" lon="3.42714">
        <ele>698.05</ele>
        <time>2014-03-23T08:48:27Z</time>
      </trkpt>
      <trkpt lat="45.63582" lon="3.42705">
        <ele>696.61</ele>
        <time>2014-03-23T08:48:30Z</time>
      </trkpt>
      <trkpt lat="45.63583" lon="3.42695">
        <ele>696.13</ele>
        <time>2014-03-23T08:48:32Z</time>
      </trkpt>
      <trkpt lat="45.63609" lon="3.42668">
        <ele>694.69</ele>
        <time>2014-03-23T08:48:43Z</time>
      </trkpt>
      <trkpt lat="45.6363" lon="3.42653">
        <ele>694.21</ele>
        <time>2014-03-23T08:48:54Z</time>
      </trkpt>
      <trkpt lat="45.6366" lon="3.42624">
        <ele>692.77</ele>
        <time>2014-03-23T08:49:07Z</time>
      </trkpt>
      <trkpt lat="45.63686" lon="3.42602">
        <ele>689.88</ele>
        <time>2014-03-23T08:49:21Z</time>
      </trkpt>
      <trkpt lat="45.63712" lon="3.42563">
        <ele>687.48</ele>
        <time>2014-03-23T08:49:35Z</time>
      </trkpt>
      <trkpt lat="45.63726" lon="3.4252">
        <ele>687.48</ele>
        <time>2014-03-23T08:49:50Z</time>
      </trkpt>
      <trkpt lat="45.63727" lon="3.42517">
        <ele>687</ele>
        <time>2014-03-23T08:49:51Z</time>
      </trkpt>
      <trkpt lat="45.63741" lon="3.42465">
        <ele>686.52</ele>
        <time>2014-03-23T08:50:05Z</time>
      </trkpt>
      <trkpt lat="45.63746" lon="3.42427">
        <ele>684.6</ele>
        <time>2014-03-23T08:50:15Z</time>
      </trkpt>
      <trkpt lat="45.63762" lon="3.42388">
        <ele>681.23</ele>
        <time>2014-03-23T08:50:28Z</time>
      </trkpt>
      <trkpt lat="45.63768" lon="3.42366">
        <ele>679.79</ele>
        <time>2014-03-23T08:50:38Z</time>
      </trkpt>
      <trkpt lat="45.63769" lon="3.42352">
        <ele>677.87</ele>
        <time>2014-03-23T08:50:43Z</time>
      </trkpt>
      <trkpt lat="45.63768" lon="3.42343">
        <ele>676.91</ele>
        <time>2014-03-23T08:50:46Z</time>
      </trkpt>
      <trkpt lat="45.63761" lon="3.42289">
        <ele>675.46</ele>
        <time>2014-03-23T08:51:02Z</time>
      </trkpt>
      <trkpt lat="45.63753" lon="3.42256">
        <ele>674.02</ele>
        <time>2014-03-23T08:51:18Z</time>
      </trkpt>
      <trkpt lat="45.63754" lon="3.4225">
        <ele>674.02</ele>
        <time>2014-03-23T08:51:19Z</time>
      </trkpt>
      <trkpt lat="45.63769" lon="3.42214">
        <ele>670.66</ele>
        <time>2014-03-23T08:51:31Z</time>
      </trkpt>
      <trkpt lat="45.63772" lon="3.42194">
        <ele>668.73</ele>
        <time>2014-03-23T08:51:36Z</time>
      </trkpt>
      <trkpt lat="45.63777" lon="3.42165">
        <ele>665.85</ele>
        <time>2014-03-23T08:51:42Z</time>
      </trkpt>
      <trkpt lat="45.63778" lon="3.42146">
        <ele>663.93</ele>
        <time>2014-03-23T08:51:45Z</time>
      </trkpt>
      <trkpt lat="45.63781" lon="3.42131">
        <ele>660.56</ele>
        <time>2014-03-23T08:51:48Z</time>
      </trkpt>
      <trkpt lat="45.63783" lon="3.42126">
        <ele>660.56</ele>
        <time>2014-03-23T08:51:49Z</time>
      </trkpt>
      <trkpt lat="45.63795" lon="3.42093">
        <ele>657.2</ele>
        <time>2014-03-23T08:51:56Z</time>
      </trkpt>
      <trkpt lat="45.63818" lon="3.42074">
        <ele>654.31</ele>
        <time>2014-03-23T08:52:10Z</time>
      </trkpt>
      <trkpt lat="45.63822" lon="3.42073">
        <ele>652.39</ele>
        <time>2014-03-23T08:52:13Z</time>
      </trkpt>
      <trkpt lat="45.63826" lon="3.4207">
        <ele>651.43</ele>
        <time>2014-03-23T08:52:15Z</time>
      </trkpt>
      <trkpt lat="45.6383" lon="3.42068">
        <ele>650.95</ele>
        <time>2014-03-23T08:52:17Z</time>
      </trkpt>
      <trkpt lat="45.63835" lon="3.42065">
        <ele>649.03</ele>
        <time>2014-03-23T08:52:20Z</time>
      </trkpt>
      <trkpt lat="45.63852" lon="3.42058">
        <ele>646.14</ele>
        <time>2014-03-23T08:52:28Z</time>
      </trkpt>
      <trkpt lat="45.63854" lon="3.42057">
        <ele>645.18</ele>
        <time>2014-03-23T08:52:29Z</time>
      </trkpt>
      <trkpt lat="45.63879" lon="3.42037">
        <ele>641.82</ele>
        <time>2014-03-23T08:52:41Z</time>
      </trkpt>
      <trkpt lat="45.63895" lon="3.42029">
        <ele>638.45</ele>
        <time>2014-03-23T08:52:47Z</time>
      </trkpt>
      <trkpt lat="45.63911" lon="3.42028">
        <ele>635.57</ele>
        <time>2014-03-23T08:52:53Z</time>
      </trkpt>
      <trkpt lat="45.63913" lon="3.42028">
        <ele>635.57</ele>
        <time>2014-03-23T08:52:54Z</time>
      </trkpt>
      <trkpt lat="45.63916" lon="3.42027">
        <ele>634.13</ele>
        <time>2014-03-23T08:52:55Z</time>
      </trkpt>
      <trkpt lat="45.63935" lon="3.42013">
        <ele>632.68</ele>
        <time>2014-03-23T08:53:06Z</time>
      </trkpt>
      <trkpt lat="45.63939" lon="3.42008">
        <ele>631.24</ele>
        <time>2014-03-23T08:53:09Z</time>
      </trkpt>
      <trkpt lat="45.6395" lon="3.41989">
        <ele>628.84</ele>
        <time>2014-03-23T08:53:19Z</time>
      </trkpt>
      <trkpt lat="45.63964" lon="3.41966">
        <ele>626.92</ele>
        <time>2014-03-23T08:53:28Z</time>
      </trkpt>
      <trkpt lat="45.63993" lon="3.41945">
        <ele>623.55</ele>
        <time>2014-03-23T08:53:42Z</time>
      </trkpt>
      <trkpt lat="45.64001" lon="3.41945">
        <ele>622.11</ele>
        <time>2014-03-23T08:53:45Z</time>
      </trkpt>
      <trkpt lat="45.64004" lon="3.41945">
        <ele>622.11</ele>
        <time>2014-03-23T08:53:46Z</time>
      </trkpt>
      <trkpt lat="45.64043" lon="3.41923">
        <ele>619.71</ele>
        <time>2014-03-23T08:54:01Z</time>
      </trkpt>
      <trkpt lat="45.64073" lon="3.419">
        <ele>616.34</ele>
        <time>2014-03-23T08:54:15Z</time>
      </trkpt>
      <trkpt lat="45.64084" lon="3.41881">
        <ele>613.46</ele>
        <time>2014-03-23T08:54:26Z</time>
      </trkpt>
      <trkpt lat="45.64085" lon="3.41871">
        <ele>612.02</ele>
        <time>2014-03-23T08:54:32Z</time>
      </trkpt>
      <trkpt lat="45.64048" lon="3.41821">
        <ele>609.61</ele>
        <time>2014-03-23T08:54:48Z</time>
      </trkpt>
      <trkpt lat="45.64042" lon="3.41805">
        <ele>606.25</ele>
        <time>2014-03-23T08:55:00Z</time>
      </trkpt>
      <trkpt lat="45.64037" lon="3.41775">
        <ele>605.29</ele>
        <time>2014-03-23T08:55:08Z</time>
      </trkpt>
      <trkpt lat="45.64038" lon="3.41772">
        <ele>604.81</ele>
        <time>2014-03-23T08:55:09Z</time>
      </trkpt>
      <trkpt lat="45.64043" lon="3.41755">
        <ele>603.36</ele>
        <time>2014-03-23T08:55:16Z</time>
      </trkpt>
      <trkpt lat="45.64061" lon="3.41747">
        <ele>599.52</ele>
        <time>2014-03-23T08:55:25Z</time>
      </trkpt>
      <trkpt lat="45.64082" lon="3.41747">
        <ele>595.67</ele>
        <time>2014-03-23T08:55:36Z</time>
      </trkpt>
      <trkpt lat="45.6409" lon="3.41749">
        <ele>593.75</ele>
        <time>2014-03-23T08:55:40Z</time>
      </trkpt>
      <trkpt lat="45.641" lon="3.41745">
        <ele>591.35</ele>
        <time>2014-03-23T08:55:45Z</time>
      </trkpt>
      <trkpt lat="45.6411" lon="3.41739">
        <ele>589.43</ele>
        <time>2014-03-23T08:55:50Z</time>
      </trkpt>
      <trkpt lat="45.64127" lon="3.41727">
        <ele>586.06</ele>
        <time>2014-03-23T08:55:58Z</time>
      </trkpt>
      <trkpt lat="45.64132" lon="3.41725">
        <ele>586.54</ele>
        <time>2014-03-23T08:56:00Z</time>
      </trkpt>
      <trkpt lat="45.64176" lon="3.41742">
        <ele>583.66</ele>
        <time>2014-03-23T08:56:12Z</time>
      </trkpt>
      <trkpt lat="45.64219" lon="3.41738">
        <ele>580.29</ele>
        <time>2014-03-23T08:56:23Z</time>
      </trkpt>
      <trkpt lat="45.64245" lon="3.41728">
        <ele>577.41</ele>
        <time>2014-03-23T08:56:32Z</time>
      </trkpt>
      <trkpt lat="45.64273" lon="3.41714">
        <ele>574.53</ele>
        <time>2014-03-23T08:56:41Z</time>
      </trkpt>
      <trkpt lat="45.643" lon="3.41713">
        <ele>572.12</ele>
        <time>2014-03-23T08:56:51Z</time>
      </trkpt>
      <trkpt lat="45.64332" lon="3.41715">
        <ele>571.64</ele>
        <time>2014-03-23T08:57:03Z</time>
      </trkpt>
      <trkpt lat="45.64362" lon="3.41669">
        <ele>572.6</ele>
        <time>2014-03-23T08:57:19Z</time>
      </trkpt>
      <trkpt lat="45.64396" lon="3.41636">
        <ele>573.56</ele>
        <time>2014-03-23T08:57:32Z</time>
      </trkpt>
      <trkpt lat="45.64432" lon="3.4161">
        <ele>575.97</ele>
        <time>2014-03-23T08:57:47Z</time>
      </trkpt>
      <trkpt lat="45.64466" lon="3.41579">
        <ele>578.37</ele>
        <time>2014-03-23T08:58:03Z</time>
      </trkpt>
      <trkpt lat="45.64494" lon="3.41561">
        <ele>579.33</ele>
        <time>2014-03-23T08:58:15Z</time>
      </trkpt>
      <trkpt lat="45.6453" lon="3.41534">
        <ele>581.25</ele>
        <time>2014-03-23T08:58:31Z</time>
      </trkpt>
      <trkpt lat="45.64539" lon="3.41524">
        <ele>582.22</ele>
        <time>2014-03-23T08:58:36Z</time>
      </trkpt>
      <trkpt lat="45.6454" lon="3.41503">
        <ele>582.7</ele>
        <time>2014-03-23T08:58:43Z</time>
      </trkpt>
      <trkpt lat="45.64515" lon="3.41449">
        <ele>579.33</ele>
        <time>2014-03-23T08:58:58Z</time>
      </trkpt>
      <trkpt lat="45.64487" lon="3.41403">
        <ele>576.93</ele>
        <time>2014-03-23T08:59:12Z</time>
      </trkpt>
      <trkpt lat="45.64473" lon="3.41357">
        <ele>578.37</ele>
        <time>2014-03-23T08:59:26Z</time>
      </trkpt>
      <trkpt lat="45.64479" lon="3.41332">
        <ele>579.81</ele>
        <time>2014-03-23T08:59:34Z</time>
      </trkpt>
      <trkpt lat="45.64481" lon="3.41298">
        <ele>583.18</ele>
        <time>2014-03-23T08:59:44Z</time>
      </trkpt>
      <trkpt lat="45.64481" lon="3.41296">
        <ele>583.66</ele>
        <time>2014-03-23T08:59:45Z</time>
      </trkpt>
      <trkpt lat="45.64476" lon="3.41288">
        <ele>584.62</ele>
        <time>2014-03-23T08:59:55Z</time>
      </trkpt>
      <trkpt lat="45.6445" lon="3.41301">
        <ele>587.98</ele>
        <time>2014-03-23T09:00:10Z</time>
      </trkpt>
      <trkpt lat="45.64422" lon="3.41304">
        <ele>589.43</ele>
        <time>2014-03-23T09:00:26Z</time>
      </trkpt>
      <trkpt lat="45.64417" lon="3.41302">
        <ele>589.91</ele>
        <time>2014-03-23T09:00:28Z</time>
      </trkpt>
      <trkpt lat="45.64384" lon="3.41279">
        <ele>592.31</ele>
        <time>2014-03-23T09:00:45Z</time>
      </trkpt>
      <trkpt lat="45.64375" lon="3.41267">
        <ele>592.79</ele>
        <time>2014-03-23T09:00:50Z</time>
      </trkpt>
      <trkpt lat="45.64365" lon="3.4126">
        <ele>594.23</ele>
        <time>2014-03-23T09:00:55Z</time>
      </trkpt>
      <trkpt lat="45.64316" lon="3.41242">
        <ele>592.31</ele>
        <time>2014-03-23T09:01:16Z</time>
      </trkpt>
      <trkpt lat="45.64285" lon="3.41212">
        <ele>591.83</ele>
        <time>2014-03-23T09:01:32Z</time>
      </trkpt>
      <trkpt lat="45.64276" lon="3.41207">
        <ele>590.39</ele>
        <time>2014-03-23T09:01:36Z</time>
      </trkpt>
      <trkpt lat="45.64252" lon="3.41186">
        <ele>587.98</ele>
        <time>2014-03-23T09:01:48Z</time>
      </trkpt>
      <trkpt lat="45.64218" lon="3.41138">
        <ele>586.54</ele>
        <time>2014-03-23T09:02:02Z</time>
      </trkpt>
      <trkpt lat="45.64184" lon="3.41096">
        <ele>583.66</ele>
        <time>2014-03-23T09:02:15Z</time>
      </trkpt>
      <trkpt lat="45.64163" lon="3.41063">
        <ele>580.29</ele>
        <time>2014-03-23T09:02:26Z</time>
      </trkpt>
      <trkpt lat="45.64153" lon="3.41042">
        <ele>577.89</ele>
        <time>2014-03-23T09:02:33Z</time>
      </trkpt>
      <trkpt lat="45.64147" lon="3.41033">
        <ele>574.53</ele>
        <time>2014-03-23T09:02:38Z</time>
      </trkpt>
      <trkpt lat="45.64134" lon="3.41009">
        <ele>571.16</ele>
        <time>2014-03-23T09:02:47Z</time>
      </trkpt>
      <trkpt lat="45.64131" lon="3.41009">
        <ele>570.2</ele>
        <time>2014-03-23T09:02:49Z</time>
      </trkpt>
      <trkpt lat="45.64119" lon="3.41004">
        <ele>566.83</ele>
        <time>2014-03-23T09:02:54Z</time>
      </trkpt>
      <trkpt lat="45.64113" lon="3.40999">
        <ele>565.39</ele>
        <time>2014-03-23T09:02:57Z</time>
      </trkpt>
      <trkpt lat="45.64103" lon="3.40989">
        <ele>563.47</ele>
        <time>2014-03-23T09:03:01Z</time>
      </trkpt>
      <trkpt lat="45.64077" lon="3.40951">
        <ele>560.11</ele>
        <time>2014-03-23T09:03:11Z</time>
      </trkpt>
      <trkpt lat="45.6407" lon="3.40935">
        <ele>559.62</ele>
        <time>2014-03-23T09:03:14Z</time>
      </trkpt>
      <trkpt lat="45.64053" lon="3.40889">
        <ele>561.07</ele>
        <time>2014-03-23T09:03:28Z</time>
      </trkpt>
      <trkpt lat="45.64052" lon="3.40886">
        <ele>560.59</ele>
        <time>2014-03-23T09:03:29Z</time>
      </trkpt>
      <trkpt lat="45.64054" lon="3.40874">
        <ele>561.55</ele>
        <time>2014-03-23T09:03:33Z</time>
      </trkpt>
      <trkpt lat="45.64044" lon="3.40864">
        <ele>562.03</ele>
        <time>2014-03-23T09:03:38Z</time>
      </trkpt>
      <trkpt lat="45.64026" lon="3.40837">
        <ele>565.39</ele>
        <time>2014-03-23T09:03:49Z</time>
      </trkpt>
      <trkpt lat="45.64002" lon="3.40818">
        <ele>567.8</ele>
        <time>2014-03-23T09:04:03Z</time>
      </trkpt>
      <trkpt lat="45.63996" lon="3.4081">
        <ele>569.72</ele>
        <time>2014-03-23T09:04:07Z</time>
      </trkpt>
      <trkpt lat="45.63979" lon="3.40789">
        <ele>573.08</ele>
        <time>2014-03-23T09:04:18Z</time>
      </trkpt>
      <trkpt lat="45.63974" lon="3.40783">
        <ele>573.56</ele>
        <time>2014-03-23T09:04:21Z</time>
      </trkpt>
      <trkpt lat="45.63968" lon="3.40778">
        <ele>575.01</ele>
        <time>2014-03-23T09:04:24Z</time>
      </trkpt>
      <trkpt lat="45.63964" lon="3.40774">
        <ele>575.97</ele>
        <time>2014-03-23T09:04:26Z</time>
      </trkpt>
      <trkpt lat="45.63944" lon="3.40744">
        <ele>580.29</ele>
        <time>2014-03-23T09:04:41Z</time>
      </trkpt>
      <trkpt lat="45.63951" lon="3.40716">
        <ele>582.22</ele>
        <time>2014-03-23T09:04:54Z</time>
      </trkpt>
      <trkpt lat="45.63959" lon="3.40679">
        <ele>585.58</ele>
        <time>2014-03-23T09:05:06Z</time>
      </trkpt>
      <trkpt lat="45.63957" lon="3.40674">
        <ele>586.54</ele>
        <time>2014-03-23T09:05:09Z</time>
      </trkpt>
      <trkpt lat="45.63953" lon="3.40667">
        <ele>587.98</ele>
        <time>2014-03-23T09:05:13Z</time>
      </trkpt>
      <trkpt lat="45.63949" lon="3.40659">
        <ele>588.95</ele>
        <time>2014-03-23T09:05:17Z</time>
      </trkpt>
      <trkpt lat="45.63924" lon="3.40635">
        <ele>592.79</ele>
        <time>2014-03-23T09:05:34Z</time>
      </trkpt>
      <trkpt lat="45.63918" lon="3.40621">
        <ele>591.83</ele>
        <time>2014-03-23T09:05:41Z</time>
      </trkpt>
      <trkpt lat="45.63891" lon="3.40583">
        <ele>590.87</ele>
        <time>2014-03-23T09:05:56Z</time>
      </trkpt>
      <trkpt lat="45.63882" lon="3.40571">
        <ele>593.75</ele>
        <time>2014-03-23T09:06:05Z</time>
      </trkpt>
      <trkpt lat="45.63874" lon="3.4056">
        <ele>597.12</ele>
        <time>2014-03-23T09:06:13Z</time>
      </trkpt>
      <trkpt lat="45.63863" lon="3.40547">
        <ele>600.48</ele>
        <time>2014-03-23T09:06:23Z</time>
      </trkpt>
      <trkpt lat="45.63851" lon="3.40533">
        <ele>603.85</ele>
        <time>2014-03-23T09:06:36Z</time>
      </trkpt>
      <trkpt lat="45.63849" lon="3.40531">
        <ele>604.33</ele>
        <time>2014-03-23T09:06:38Z</time>
      </trkpt>
      <trkpt lat="45.6384" lon="3.40508">
        <ele>607.69</ele>
        <time>2014-03-23T09:06:52Z</time>
      </trkpt>
      <trkpt lat="45.6384" lon="3.40494">
        <ele>611.06</ele>
        <time>2014-03-23T09:07:03Z</time>
      </trkpt>
      <trkpt lat="45.63841" lon="3.40484">
        <ele>612.5</ele>
        <time>2014-03-23T09:07:10Z</time>
      </trkpt>
      <trkpt lat="45.63841" lon="3.40478">
        <ele>613.46</ele>
        <time>2014-03-23T09:07:13Z</time>
      </trkpt>
      <trkpt lat="45.63841" lon="3.40473">
        <ele>613.94</ele>
        <time>2014-03-23T09:07:16Z</time>
      </trkpt>
      <trkpt lat="45.63829" lon="3.40429">
        <ele>618.26</ele>
        <time>2014-03-23T09:07:33Z</time>
      </trkpt>
      <trkpt lat="45.63823" lon="3.40391">
        <ele>619.23</ele>
        <time>2014-03-23T09:07:47Z</time>
      </trkpt>
      <trkpt lat="45.63825" lon="3.40349">
        <ele>619.71</ele>
        <time>2014-03-23T09:08:01Z</time>
      </trkpt>
      <trkpt lat="45.63833" lon="3.40299">
        <ele>619.71</ele>
        <time>2014-03-23T09:08:19Z</time>
      </trkpt>
      <trkpt lat="45.63854" lon="3.40277">
        <ele>622.11</ele>
        <time>2014-03-23T09:08:32Z</time>
      </trkpt>
      <trkpt lat="45.63869" lon="3.40248">
        <ele>625.47</ele>
        <time>2014-03-23T09:08:47Z</time>
      </trkpt>
      <trkpt lat="45.63884" lon="3.40211">
        <ele>627.88</ele>
        <time>2014-03-23T09:09:03Z</time>
      </trkpt>
      <trkpt lat="45.63906" lon="3.40181">
        <ele>630.76</ele>
        <time>2014-03-23T09:09:21Z</time>
      </trkpt>
      <trkpt lat="45.63923" lon="3.40156">
        <ele>633.65</ele>
        <time>2014-03-23T09:09:36Z</time>
      </trkpt>
      <trkpt lat="45.63941" lon="3.40136">
        <ele>636.53</ele>
        <time>2014-03-23T09:09:53Z</time>
      </trkpt>
      <trkpt lat="45.6396" lon="3.40123">
        <ele>638.93</ele>
        <time>2014-03-23T09:10:10Z</time>
      </trkpt>
      <trkpt lat="45.63974" lon="3.40107">
        <ele>641.34</ele>
        <time>2014-03-23T09:10:23Z</time>
      </trkpt>
      <trkpt lat="45.63996" lon="3.40092">
        <ele>644.7</ele>
        <time>2014-03-23T09:10:37Z</time>
      </trkpt>
      <trkpt lat="45.64023" lon="3.40094">
        <ele>645.66</ele>
        <time>2014-03-23T09:10:51Z</time>
      </trkpt>
      <trkpt lat="45.64048" lon="3.40107">
        <ele>647.1</ele>
        <time>2014-03-23T09:11:05Z</time>
      </trkpt>
      <trkpt lat="45.6407" lon="3.40133">
        <ele>649.03</ele>
        <time>2014-03-23T09:11:20Z</time>
      </trkpt>
      <trkpt lat="45.64092" lon="3.4015">
        <ele>650.95</ele>
        <time>2014-03-23T09:11:36Z</time>
      </trkpt>
      <trkpt lat="45.64121" lon="3.40171">
        <ele>652.39</ele>
        <time>2014-03-23T09:11:54Z</time>
      </trkpt>
      <trkpt lat="45.64131" lon="3.40181">
        <ele>653.35</ele>
        <time>2014-03-23T09:12:02Z</time>
      </trkpt>
      <trkpt lat="45.64164" lon="3.40207">
        <ele>654.31</ele>
        <time>2014-03-23T09:12:19Z</time>
      </trkpt>
      <trkpt lat="45.64178" lon="3.40233">
        <ele>654.31</ele>
        <time>2014-03-23T09:12:30Z</time>
      </trkpt>
      <trkpt lat="45.64184" lon="3.40283">
        <ele>655.76</ele>
        <time>2014-03-23T09:12:49Z</time>
      </trkpt>
      <trkpt lat="45.64194" lon="3.40316">
        <ele>657.68</ele>
        <time>2014-03-23T09:13:04Z</time>
      </trkpt>
      <trkpt lat="45.64194" lon="3.40324">
        <ele>657.2</ele>
        <time>2014-03-23T09:13:21Z</time>
      </trkpt>
      <trkpt lat="45.64192" lon="3.40338">
        <ele>658.16</ele>
        <time>2014-03-23T09:13:38Z</time>
      </trkpt>
      <trkpt lat="45.64202" lon="3.40339">
        <ele>658.16</ele>
        <time>2014-03-23T09:13:57Z</time>
      </trkpt>
      <trkpt lat="45.64213" lon="3.40334">
        <ele>659.12</ele>
        <time>2014-03-23T09:14:21Z</time>
      </trkpt>
      <trkpt lat="45.64228" lon="3.40317">
        <ele>662.49</ele>
        <time>2014-03-23T09:14:37Z</time>
      </trkpt>
      <trkpt lat="45.64244" lon="3.4031">
        <ele>665.37</ele>
        <time>2014-03-23T09:14:56Z</time>
      </trkpt>
      <trkpt lat="45.64258" lon="3.40304">
        <ele>667.29</ele>
        <time>2014-03-23T09:15:13Z</time>
      </trkpt>
      <trkpt lat="45.64282" lon="3.40308">
        <ele>670.66</ele>
        <time>2014-03-23T09:15:29Z</time>
      </trkpt>
      <trkpt lat="45.64287" lon="3.40309">
        <ele>671.14</ele>
        <time>2014-03-23T09:15:37Z</time>
      </trkpt>
      <trkpt lat="45.64293" lon="3.40309">
        <ele>671.14</ele>
        <time>2014-03-23T09:15:39Z</time>
      </trkpt>
      <trkpt lat="45.64316" lon="3.40309">
        <ele>672.58</ele>
        <time>2014-03-23T09:15:49Z</time>
      </trkpt>
      <trkpt lat="45.64331" lon="3.40306">
        <ele>672.58</ele>
        <time>2014-03-23T09:15:56Z</time>
      </trkpt>
      <trkpt lat="45.64364" lon="3.40306">
        <ele>674.5</ele>
        <time>2014-03-23T09:16:08Z</time>
      </trkpt>
      <trkpt lat="45.64392" lon="3.40299">
        <ele>676.91</ele>
        <time>2014-03-23T09:16:25Z</time>
      </trkpt>
      <trkpt lat="45.64408" lon="3.40289">
        <ele>679.79</ele>
        <time>2014-03-23T09:16:40Z</time>
      </trkpt>
      <trkpt lat="45.64421" lon="3.40283">
        <ele>683.15</ele>
        <time>2014-03-23T09:16:53Z</time>
      </trkpt>
      <trkpt lat="45.64426" lon="3.4028">
        <ele>686.04</ele>
        <time>2014-03-23T09:17:09Z</time>
      </trkpt>
      <trkpt lat="45.64426" lon="3.4028">
        <ele>687</ele>
        <time>2014-03-23T09:17:11Z</time>
      </trkpt>
      <trkpt lat="45.64438" lon="3.40274">
        <ele>690.36</ele>
        <time>2014-03-23T09:17:22Z</time>
      </trkpt>
      <trkpt lat="45.64441" lon="3.40266">
        <ele>693.25</ele>
        <time>2014-03-23T09:17:41Z</time>
      </trkpt>
      <trkpt lat="45.64448" lon="3.40261">
        <ele>695.17</ele>
        <time>2014-03-23T09:17:55Z</time>
      </trkpt>
      <trkpt lat="45.64471" lon="3.40243">
        <ele>698.53</ele>
        <time>2014-03-23T09:18:12Z</time>
      </trkpt>
      <trkpt lat="45.64496" lon="3.4022">
        <ele>701.9</ele>
        <time>2014-03-23T09:18:27Z</time>
      </trkpt>
      <trkpt lat="45.64519" lon="3.40189">
        <ele>704.3</ele>
        <time>2014-03-23T09:18:43Z</time>
      </trkpt>
      <trkpt lat="45.64544" lon="3.40174">
        <ele>707.67</ele>
        <time>2014-03-23T09:18:58Z</time>
      </trkpt>
      <trkpt lat="45.6456" lon="3.40158">
        <ele>711.03</ele>
        <time>2014-03-23T09:19:17Z</time>
      </trkpt>
      <trkpt lat="45.64574" lon="3.4014">
        <ele>712.95</ele>
        <time>2014-03-23T09:19:35Z</time>
      </trkpt>
      <trkpt lat="45.64579" lon="3.40121">
        <ele>716.32</ele>
        <time>2014-03-23T09:19:50Z</time>
      </trkpt>
      <trkpt lat="45.64583" lon="3.40093">
        <ele>718.24</ele>
        <time>2014-03-23T09:20:07Z</time>
      </trkpt>
      <trkpt lat="45.64587" lon="3.40084">
        <ele>720.16</ele>
        <time>2014-03-23T09:20:26Z</time>
      </trkpt>
      <trkpt lat="45.64601" lon="3.40078">
        <ele>721.61</ele>
        <time>2014-03-23T09:20:41Z</time>
      </trkpt>
      <trkpt lat="45.64609" lon="3.40074">
        <ele>722.09</ele>
        <time>2014-03-23T09:20:55Z</time>
      </trkpt>
      <trkpt lat="45.64615" lon="3.40065">
        <ele>724.49</ele>
        <time>2014-03-23T09:21:06Z</time>
      </trkpt>
      <trkpt lat="45.64619" lon="3.4006">
        <ele>725.93</ele>
        <time>2014-03-23T09:21:22Z</time>
      </trkpt>
      <trkpt lat="45.64625" lon="3.40056">
        <ele>729.3</ele>
        <time>2014-03-23T09:21:36Z</time>
      </trkpt>
      <trkpt lat="45.64625" lon="3.40056">
        <ele>729.3</ele>
        <time>2014-03-23T09:21:37Z</time>
      </trkpt>
      <trkpt lat="45.64627" lon="3.40054">
        <ele>732.18</ele>
        <time>2014-03-23T09:21:51Z</time>
      </trkpt>
      <trkpt lat="45.6463" lon="3.40052">
        <ele>735.55</ele>
        <time>2014-03-23T09:22:06Z</time>
      </trkpt>
      <trkpt lat="45.6463" lon="3.40052">
        <ele>735.07</ele>
        <time>2014-03-23T09:22:07Z</time>
      </trkpt>
      <trkpt lat="45.64634" lon="3.40045">
        <ele>737.95</ele>
        <time>2014-03-23T09:22:21Z</time>
      </trkpt>
      <trkpt lat="45.64636" lon="3.40042">
        <ele>741.79</ele>
        <time>2014-03-23T09:22:40Z</time>
      </trkpt>
      <trkpt lat="45.64637" lon="3.40041">
        <ele>741.79</ele>
        <time>2014-03-23T09:22:41Z</time>
      </trkpt>
      <trkpt lat="45.64642" lon="3.40036">
        <ele>744.68</ele>
        <time>2014-03-23T09:22:53Z</time>
      </trkpt>
      <trkpt lat="45.64643" lon="3.40036">
        <ele>748.04</ele>
        <time>2014-03-23T09:23:06Z</time>
      </trkpt>
      <trkpt lat="45.64647" lon="3.40035">
        <ele>749.49</ele>
        <time>2014-03-23T09:23:12Z</time>
      </trkpt>
      <trkpt lat="45.64652" lon="3.40033">
        <ele>751.41</ele>
        <time>2014-03-23T09:23:32Z</time>
      </trkpt>
      <trkpt lat="45.64657" lon="3.40029">
        <ele>751.89</ele>
        <time>2014-03-23T09:23:48Z</time>
      </trkpt>
      <trkpt lat="45.64664" lon="3.40024">
        <ele>755.73</ele>
        <time>2014-03-23T09:24:00Z</time>
      </trkpt>
      <trkpt lat="45.64667" lon="3.40023">
        <ele>757.18</ele>
        <time>2014-03-23T09:24:14Z</time>
      </trkpt>
      <trkpt lat="45.64681" lon="3.40014">
        <ele>760.54</ele>
        <time>2014-03-23T09:24:33Z</time>
      </trkpt>
      <trkpt lat="45.64692" lon="3.40007">
        <ele>762.94</ele>
        <time>2014-03-23T09:24:50Z</time>
      </trkpt>
      <trkpt lat="45.64703" lon="3.40005">
        <ele>765.83</ele>
        <time>2014-03-23T09:25:06Z</time>
      </trkpt>
      <trkpt lat="45.64707" lon="3.40002">
        <ele>769.19</ele>
        <time>2014-03-23T09:25:26Z</time>
      </trkpt>
      <trkpt lat="45.64713" lon="3.40003">
        <ele>772.56</ele>
        <time>2014-03-23T09:25:44Z</time>
      </trkpt>
      <trkpt lat="45.64713" lon="3.40003">
        <ele>774</ele>
        <time>2014-03-23T09:25:48Z</time>
      </trkpt>
      <trkpt lat="45.6472" lon="3.40001">
        <ele>777.36</ele>
        <time>2014-03-23T09:26:04Z</time>
      </trkpt>
      <trkpt lat="45.6474" lon="3.39993">
        <ele>778.81</ele>
        <time>2014-03-23T09:26:19Z</time>
      </trkpt>
      <trkpt lat="45.64753" lon="3.39996">
        <ele>775.92</ele>
        <time>2014-03-23T09:26:37Z</time>
      </trkpt>
      <trkpt lat="45.64757" lon="3.39997">
        <ele>773.04</ele>
        <time>2014-03-23T09:26:48Z</time>
      </trkpt>
      <trkpt lat="45.64761" lon="3.39998">
        <ele>770.63</ele>
        <time>2014-03-23T09:26:57Z</time>
      </trkpt>
      <trkpt lat="45.64764" lon="3.40001">
        <ele>769.19</ele>
        <time>2014-03-23T09:26:59Z</time>
      </trkpt>
      <trkpt lat="45.64767" lon="3.40002">
        <ele>768.23</ele>
        <time>2014-03-23T09:27:01Z</time>
      </trkpt>
      <trkpt lat="45.64781" lon="3.40007">
        <ele>764.39</ele>
        <time>2014-03-23T09:27:17Z</time>
      </trkpt>
      <trkpt lat="45.64797" lon="3.40018">
        <ele>761.02</ele>
        <time>2014-03-23T09:27:25Z</time>
      </trkpt>
      <trkpt lat="45.64799" lon="3.40021">
        <ele>760.06</ele>
        <time>2014-03-23T09:27:32Z</time>
      </trkpt>
      <trkpt lat="45.648" lon="3.40022">
        <ele>756.69</ele>
        <time>2014-03-23T09:27:42Z</time>
      </trkpt>
      <trkpt lat="45.64803" lon="3.4003">
        <ele>753.33</ele>
        <time>2014-03-23T09:27:53Z</time>
      </trkpt>
      <trkpt lat="45.64816" lon="3.40038">
        <ele>749.97</ele>
        <time>2014-03-23T09:28:03Z</time>
      </trkpt>
      <trkpt lat="45.64825" lon="3.40045">
        <ele>746.6</ele>
        <time>2014-03-23T09:28:14Z</time>
      </trkpt>
      <trkpt lat="45.64844" lon="3.40055">
        <ele>743.24</ele>
        <time>2014-03-23T09:28:21Z</time>
      </trkpt>
      <trkpt lat="45.64846" lon="3.40057">
        <ele>743.24</ele>
        <time>2014-03-23T09:28:22Z</time>
      </trkpt>
      <trkpt lat="45.64851" lon="3.40062">
        <ele>741.79</ele>
        <time>2014-03-23T09:28:25Z</time>
      </trkpt>
      <trkpt lat="45.64854" lon="3.40066">
        <ele>738.43</ele>
        <time>2014-03-23T09:28:32Z</time>
      </trkpt>
      <trkpt lat="45.64854" lon="3.4007">
        <ele>735.55</ele>
        <time>2014-03-23T09:28:40Z</time>
      </trkpt>
      <trkpt lat="45.64857" lon="3.40068">
        <ele>733.62</ele>
        <time>2014-03-23T09:28:43Z</time>
      </trkpt>
      <trkpt lat="45.6486" lon="3.40068">
        <ele>731.7</ele>
        <time>2014-03-23T09:28:47Z</time>
      </trkpt>
      <trkpt lat="45.64874" lon="3.40068">
        <ele>728.34</ele>
        <time>2014-03-23T09:28:57Z</time>
      </trkpt>
      <trkpt lat="45.64888" lon="3.40079">
        <ele>725.93</ele>
        <time>2014-03-23T09:29:07Z</time>
      </trkpt>
      <trkpt lat="45.64888" lon="3.40082">
        <ele>724.97</ele>
        <time>2014-03-23T09:29:08Z</time>
      </trkpt>
      <trkpt lat="45.649" lon="3.40093">
        <ele>722.57</ele>
        <time>2014-03-23T09:29:21Z</time>
      </trkpt>
      <trkpt lat="45.64917" lon="3.40093">
        <ele>720.65</ele>
        <time>2014-03-23T09:29:27Z</time>
      </trkpt>
      <trkpt lat="45.64939" lon="3.40088">
        <ele>717.76</ele>
        <time>2014-03-23T09:29:40Z</time>
      </trkpt>
      <trkpt lat="45.64945" lon="3.40089">
        <ele>714.4</ele>
        <time>2014-03-23T09:29:51Z</time>
      </trkpt>
      <trkpt lat="45.64962" lon="3.40111">
        <ele>711.51</ele>
        <time>2014-03-23T09:30:01Z</time>
      </trkpt>
      <trkpt lat="45.64969" lon="3.40131">
        <ele>708.63</ele>
        <time>2014-03-23T09:30:08Z</time>
      </trkpt>
      <trkpt lat="45.6497" lon="3.40134">
        <ele>708.15</ele>
        <time>2014-03-23T09:30:09Z</time>
      </trkpt>
      <trkpt lat="45.6498" lon="3.40162">
        <ele>704.3</ele>
        <time>2014-03-23T09:30:19Z</time>
      </trkpt>
      <trkpt lat="45.64983" lon="3.40164">
        <ele>704.3</ele>
        <time>2014-03-23T09:30:21Z</time>
      </trkpt>
      <trkpt lat="45.64995" lon="3.40157">
        <ele>703.82</ele>
        <time>2014-03-23T09:30:25Z</time>
      </trkpt>
      <trkpt lat="45.65024" lon="3.40163">
        <ele>700.46</ele>
        <time>2014-03-23T09:30:35Z</time>
      </trkpt>
      <trkpt lat="45.65026" lon="3.40165">
        <ele>700.46</ele>
        <time>2014-03-23T09:30:36Z</time>
      </trkpt>
      <trkpt lat="45.65035" lon="3.40172">
        <ele>697.09</ele>
        <time>2014-03-23T09:30:42Z</time>
      </trkpt>
      <trkpt lat="45.65035" lon="3.40174">
        <ele>697.09</ele>
        <time>2014-03-23T09:30:43Z</time>
      </trkpt>
      <trkpt lat="45.6504" lon="3.40177">
        <ele>695.65</ele>
        <time>2014-03-23T09:30:46Z</time>
      </trkpt>
      <trkpt lat="45.6505" lon="3.40171">
        <ele>695.65</ele>
        <time>2014-03-23T09:30:51Z</time>
      </trkpt>
      <trkpt lat="45.65079" lon="3.40151">
        <ele>696.61</ele>
        <time>2014-03-23T09:30:57Z</time>
      </trkpt>
      <trkpt lat="45.65088" lon="3.40122">
        <ele>697.57</ele>
        <time>2014-03-23T09:31:06Z</time>
      </trkpt>
      <trkpt lat="45.65091" lon="3.40105">
        <ele>698.05</ele>
        <time>2014-03-23T09:31:12Z</time>
      </trkpt>
      <trkpt lat="45.65103" lon="3.40071">
        <ele>697.57</ele>
        <time>2014-03-23T09:31:23Z</time>
      </trkpt>
      <trkpt lat="45.65111" lon="3.40072">
        <ele>697.09</ele>
        <time>2014-03-23T09:31:27Z</time>
      </trkpt>
      <trkpt lat="45.65117" lon="3.40078">
        <ele>697.57</ele>
        <time>2014-03-23T09:31:31Z</time>
      </trkpt>
      <trkpt lat="45.65128" lon="3.40073">
        <ele>697.57</ele>
        <time>2014-03-23T09:31:35Z</time>
      </trkpt>
      <trkpt lat="45.65131" lon="3.40079">
        <ele>697.09</ele>
        <time>2014-03-23T09:31:38Z</time>
      </trkpt>
      <trkpt lat="45.65154" lon="3.40123">
        <ele>693.25</ele>
        <time>2014-03-23T09:31:53Z</time>
      </trkpt>
      <trkpt lat="45.65157" lon="3.40143">
        <ele>692.29</ele>
        <time>2014-03-23T09:31:57Z</time>
      </trkpt>
      <trkpt lat="45.65166" lon="3.40176">
        <ele>688.92</ele>
        <time>2014-03-23T09:32:05Z</time>
      </trkpt>
      <trkpt lat="45.65174" lon="3.40207">
        <ele>685.08</ele>
        <time>2014-03-23T09:32:13Z</time>
      </trkpt>
      <trkpt lat="45.65175" lon="3.40212">
        <ele>685.08</ele>
        <time>2014-03-23T09:32:14Z</time>
      </trkpt>
      <trkpt lat="45.65192" lon="3.40246">
        <ele>682.19</ele>
        <time>2014-03-23T09:32:24Z</time>
      </trkpt>
      <trkpt lat="45.652" lon="3.40264">
        <ele>681.71</ele>
        <time>2014-03-23T09:32:29Z</time>
      </trkpt>
      <trkpt lat="45.65221" lon="3.40321">
        <ele>680.75</ele>
        <time>2014-03-23T09:32:44Z</time>
      </trkpt>
      <trkpt lat="45.65223" lon="3.40342">
        <ele>677.87</ele>
        <time>2014-03-23T09:32:49Z</time>
      </trkpt>
      <trkpt lat="45.65223" lon="3.40373">
        <ele>674.5</ele>
        <time>2014-03-23T09:32:55Z</time>
      </trkpt>
      <trkpt lat="45.65223" lon="3.40388">
        <ele>673.06</ele>
        <time>2014-03-23T09:32:58Z</time>
      </trkpt>
      <trkpt lat="45.65225" lon="3.40416">
        <ele>669.7</ele>
        <time>2014-03-23T09:33:04Z</time>
      </trkpt>
      <trkpt lat="45.65226" lon="3.4042">
        <ele>669.22</ele>
        <time>2014-03-23T09:33:05Z</time>
      </trkpt>
      <trkpt lat="45.65233" lon="3.40458">
        <ele>665.85</ele>
        <time>2014-03-23T09:33:14Z</time>
      </trkpt>
      <trkpt lat="45.65238" lon="3.40471">
        <ele>664.89</ele>
        <time>2014-03-23T09:33:17Z</time>
      </trkpt>
      <trkpt lat="45.65255" lon="3.40525">
        <ele>662.01</ele>
        <time>2014-03-23T09:33:29Z</time>
      </trkpt>
      <trkpt lat="45.65274" lon="3.40584">
        <ele>659.12</ele>
        <time>2014-03-23T09:33:44Z</time>
      </trkpt>
      <trkpt lat="45.65304" lon="3.40633">
        <ele>660.08</ele>
        <time>2014-03-23T09:33:59Z</time>
      </trkpt>
      <trkpt lat="45.65324" lon="3.40672">
        <ele>662.01</ele>
        <time>2014-03-23T09:34:12Z</time>
      </trkpt>
      <trkpt lat="45.65329" lon="3.40718">
        <ele>664.89</ele>
        <time>2014-03-23T09:34:25Z</time>
      </trkpt>
      <trkpt lat="45.65339" lon="3.40771">
        <ele>668.25</ele>
        <time>2014-03-23T09:34:41Z</time>
      </trkpt>
      <trkpt lat="45.65353" lon="3.4081">
        <ele>669.7</ele>
        <time>2014-03-23T09:34:55Z</time>
      </trkpt>
      <trkpt lat="45.65381" lon="3.40833">
        <ele>672.1</ele>
        <time>2014-03-23T09:35:09Z</time>
      </trkpt>
      <trkpt lat="45.6542" lon="3.40857">
        <ele>674.5</ele>
        <time>2014-03-23T09:35:26Z</time>
      </trkpt>
      <trkpt lat="45.65454" lon="3.40876">
        <ele>675.94</ele>
        <time>2014-03-23T09:35:41Z</time>
      </trkpt>
      <trkpt lat="45.6549" lon="3.40893">
        <ele>675.46</ele>
        <time>2014-03-23T09:35:56Z</time>
      </trkpt>
      <trkpt lat="45.65497" lon="3.40899">
        <ele>674.5</ele>
        <time>2014-03-23T09:35:59Z</time>
      </trkpt>
      <trkpt lat="45.65488" lon="3.40919">
        <ele>676.42</ele>
        <time>2014-03-23T09:36:07Z</time>
      </trkpt>
      <trkpt lat="45.65471" lon="3.40969">
        <ele>678.35</ele>
        <time>2014-03-23T09:36:23Z</time>
      </trkpt>
      <trkpt lat="45.6545" lon="3.41019">
        <ele>679.79</ele>
        <time>2014-03-23T09:36:38Z</time>
      </trkpt>
      <trkpt lat="45.65421" lon="3.41061">
        <ele>679.31</ele>
        <time>2014-03-23T09:36:53Z</time>
      </trkpt>
      <trkpt lat="45.65389" lon="3.41109">
        <ele>679.31</ele>
        <time>2014-03-23T09:37:09Z</time>
      </trkpt>
      <trkpt lat="45.6536" lon="3.41157">
        <ele>677.87</ele>
        <time>2014-03-23T09:37:24Z</time>
      </trkpt>
      <trkpt lat="45.65337" lon="3.41186">
        <ele>674.98</ele>
        <time>2014-03-23T09:37:34Z</time>
      </trkpt>
      <trkpt lat="45.65335" lon="3.41236">
        <ele>673.54</ele>
        <time>2014-03-23T09:37:46Z</time>
      </trkpt>
      <trkpt lat="45.65339" lon="3.41263">
        <ele>671.62</ele>
        <time>2014-03-23T09:37:52Z</time>
      </trkpt>
      <trkpt lat="45.65342" lon="3.4128">
        <ele>669.22</ele>
        <time>2014-03-23T09:37:56Z</time>
      </trkpt>
      <trkpt lat="45.65353" lon="3.41338">
        <ele>666.81</ele>
        <time>2014-03-23T09:38:10Z</time>
      </trkpt>
      <trkpt lat="45.65356" lon="3.41367">
        <ele>663.93</ele>
        <time>2014-03-23T09:38:18Z</time>
      </trkpt>
      <trkpt lat="45.6536" lon="3.41386">
        <ele>661.52</ele>
        <time>2014-03-23T09:38:23Z</time>
      </trkpt>
      <trkpt lat="45.65372" lon="3.41418">
        <ele>657.68</ele>
        <time>2014-03-23T09:38:32Z</time>
      </trkpt>
      <trkpt lat="45.6538" lon="3.41449">
        <ele>654.31</ele>
        <time>2014-03-23T09:38:40Z</time>
      </trkpt>
      <trkpt lat="45.65382" lon="3.41457">
        <ele>653.35</ele>
        <time>2014-03-23T09:38:42Z</time>
      </trkpt>
      <trkpt lat="45.65393" lon="3.41481">
        <ele>649.99</ele>
        <time>2014-03-23T09:38:50Z</time>
      </trkpt>
      <trkpt lat="45.65419" lon="3.41522">
        <ele>646.62</ele>
        <time>2014-03-23T09:39:03Z</time>
      </trkpt>
      <trkpt lat="45.65424" lon="3.41554">
        <ele>643.26</ele>
        <time>2014-03-23T09:39:13Z</time>
      </trkpt>
      <trkpt lat="45.65432" lon="3.41607">
        <ele>642.3</ele>
        <time>2014-03-23T09:39:26Z</time>
      </trkpt>
      <trkpt lat="45.6544" lon="3.41664">
        <ele>641.82</ele>
        <time>2014-03-23T09:39:40Z</time>
      </trkpt>
      <trkpt lat="45.65441" lon="3.41675">
        <ele>641.34</ele>
        <time>2014-03-23T09:39:43Z</time>
      </trkpt>
      <trkpt lat="45.65438" lon="3.41689">
        <ele>640.38</ele>
        <time>2014-03-23T09:39:47Z</time>
      </trkpt>
      <trkpt lat="45.65421" lon="3.41742">
        <ele>639.89</ele>
        <time>2014-03-23T09:40:02Z</time>
      </trkpt>
      <trkpt lat="45.65414" lon="3.41793">
        <ele>638.45</ele>
        <time>2014-03-23T09:40:15Z</time>
      </trkpt>
      <trkpt lat="45.654" lon="3.41856">
        <ele>637.97</ele>
        <time>2014-03-23T09:40:32Z</time>
      </trkpt>
      <trkpt lat="45.65396" lon="3.41885">
        <ele>637.97</ele>
        <time>2014-03-23T09:40:40Z</time>
      </trkpt>
      <trkpt lat="45.65408" lon="3.41941">
        <ele>637.97</ele>
        <time>2014-03-23T09:40:59Z</time>
      </trkpt>
      <trkpt lat="45.65416" lon="3.41994">
        <ele>637.97</ele>
        <time>2014-03-23T09:41:13Z</time>
      </trkpt>
      <trkpt lat="45.6541" lon="3.42048">
        <ele>639.41</ele>
        <time>2014-03-23T09:41:26Z</time>
      </trkpt>
      <trkpt lat="45.65407" lon="3.421">
        <ele>638.93</ele>
        <time>2014-03-23T09:41:40Z</time>
      </trkpt>
      <trkpt lat="45.65417" lon="3.42155">
        <ele>635.57</ele>
        <time>2014-03-23T09:41:56Z</time>
      </trkpt>
      <trkpt lat="45.65421" lon="3.42175">
        <ele>633.17</ele>
        <time>2014-03-23T09:42:02Z</time>
      </trkpt>
      <trkpt lat="45.65425" lon="3.42204">
        <ele>629.8</ele>
        <time>2014-03-23T09:42:09Z</time>
      </trkpt>
      <trkpt lat="45.65433" lon="3.42216">
        <ele>628.36</ele>
        <time>2014-03-23T09:42:14Z</time>
      </trkpt>
      <trkpt lat="45.65443" lon="3.42228">
        <ele>626.92</ele>
        <time>2014-03-23T09:42:19Z</time>
      </trkpt>
      <trkpt lat="45.65471" lon="3.42274">
        <ele>623.55</ele>
        <time>2014-03-23T09:42:32Z</time>
      </trkpt>
      <trkpt lat="45.65506" lon="3.42298">
        <ele>621.15</ele>
        <time>2014-03-23T09:42:39Z</time>
      </trkpt>
      <trkpt lat="45.65529" lon="3.42347">
        <ele>617.78</ele>
        <time>2014-03-23T09:42:52Z</time>
      </trkpt>
      <trkpt lat="45.65539" lon="3.4238">
        <ele>614.9</ele>
        <time>2014-03-23T09:43:01Z</time>
      </trkpt>
      <trkpt lat="45.65552" lon="3.42414">
        <ele>611.54</ele>
        <time>2014-03-23T09:43:10Z</time>
      </trkpt>
      <trkpt lat="45.65564" lon="3.42446">
        <ele>608.17</ele>
        <time>2014-03-23T09:43:18Z</time>
      </trkpt>
      <trkpt lat="45.65584" lon="3.425">
        <ele>607.21</ele>
        <time>2014-03-23T09:43:32Z</time>
      </trkpt>
      <trkpt lat="45.65579" lon="3.42541">
        <ele>605.77</ele>
        <time>2014-03-23T09:43:45Z</time>
      </trkpt>
      <trkpt lat="45.65552" lon="3.42585">
        <ele>605.77</ele>
        <time>2014-03-23T09:43:59Z</time>
      </trkpt>
      <trkpt lat="45.65521" lon="3.4263">
        <ele>606.25</ele>
        <time>2014-03-23T09:44:13Z</time>
      </trkpt>
      <trkpt lat="45.65492" lon="3.42682">
        <ele>607.69</ele>
        <time>2014-03-23T09:44:31Z</time>
      </trkpt>
      <trkpt lat="45.65469" lon="3.42737">
        <ele>608.17</ele>
        <time>2014-03-23T09:44:47Z</time>
      </trkpt>
      <trkpt lat="45.65453" lon="3.42798">
        <ele>608.65</ele>
        <time>2014-03-23T09:45:03Z</time>
      </trkpt>
      <trkpt lat="45.65435" lon="3.42853">
        <ele>607.21</ele>
        <time>2014-03-23T09:45:19Z</time>
      </trkpt>
      <trkpt lat="45.65408" lon="3.429">
        <ele>605.77</ele>
        <time>2014-03-23T09:45:34Z</time>
      </trkpt>
      <trkpt lat="45.6539" lon="3.42935">
        <ele>602.88</ele>
        <time>2014-03-23T09:45:47Z</time>
      </trkpt>
      <trkpt lat="45.65382" lon="3.42949">
        <ele>601.44</ele>
        <time>2014-03-23T09:45:52Z</time>
      </trkpt>
      <trkpt lat="45.65365" lon="3.42978">
        <ele>598.56</ele>
        <time>2014-03-23T09:46:02Z</time>
      </trkpt>
      <trkpt lat="45.65348" lon="3.43003">
        <ele>596.15</ele>
        <time>2014-03-23T09:46:11Z</time>
      </trkpt>
      <trkpt lat="45.65338" lon="3.43021">
        <ele>592.79</ele>
        <time>2014-03-23T09:46:17Z</time>
      </trkpt>
      <trkpt lat="45.65312" lon="3.43063">
        <ele>589.91</ele>
        <time>2014-03-23T09:46:30Z</time>
      </trkpt>
      <trkpt lat="45.6527" lon="3.43087">
        <ele>588.95</ele>
        <time>2014-03-23T09:46:46Z</time>
      </trkpt>
      <trkpt lat="45.65244" lon="3.43095">
        <ele>589.91</ele>
        <time>2014-03-23T09:46:59Z</time>
      </trkpt>
      <trkpt lat="45.65211" lon="3.43108">
        <ele>592.79</ele>
        <time>2014-03-23T09:47:14Z</time>
      </trkpt>
      <trkpt lat="45.65176" lon="3.43114">
        <ele>595.67</ele>
        <time>2014-03-23T09:47:29Z</time>
      </trkpt>
      <trkpt lat="45.65146" lon="3.43149">
        <ele>598.08</ele>
        <time>2014-03-23T09:47:46Z</time>
      </trkpt>
      <trkpt lat="45.65131" lon="3.43164">
        <ele>599.52</ele>
        <time>2014-03-23T09:47:55Z</time>
      </trkpt>
      <trkpt lat="45.65128" lon="3.43167">
        <ele>600</ele>
        <time>2014-03-23T09:47:57Z</time>
      </trkpt>
      <trkpt lat="45.65104" lon="3.43197">
        <ele>602.4</ele>
        <time>2014-03-23T09:48:14Z</time>
      </trkpt>
      <trkpt lat="45.65076" lon="3.43236">
        <ele>604.81</ele>
        <time>2014-03-23T09:48:32Z</time>
      </trkpt>
      <trkpt lat="45.65053" lon="3.43268">
        <ele>605.77</ele>
        <time>2014-03-23T09:48:48Z</time>
      </trkpt>
      <trkpt lat="45.65042" lon="3.43282">
        <ele>606.73</ele>
        <time>2014-03-23T09:48:55Z</time>
      </trkpt>
      <trkpt lat="45.65031" lon="3.43296">
        <ele>608.17</ele>
        <time>2014-03-23T09:49:02Z</time>
      </trkpt>
      <trkpt lat="45.65002" lon="3.43328">
        <ele>610.57</ele>
        <time>2014-03-23T09:49:19Z</time>
      </trkpt>
      <trkpt lat="45.64985" lon="3.43354">
        <ele>612.02</ele>
        <time>2014-03-23T09:49:32Z</time>
      </trkpt>
      <trkpt lat="45.64982" lon="3.43356">
        <ele>612.5</ele>
        <time>2014-03-23T09:49:34Z</time>
      </trkpt>
      <trkpt lat="45.64955" lon="3.43391">
        <ele>615.86</ele>
        <time>2014-03-23T09:49:53Z</time>
      </trkpt>
      <trkpt lat="45.64939" lon="3.43412">
        <ele>619.23</ele>
        <time>2014-03-23T09:50:06Z</time>
      </trkpt>
      <trkpt lat="45.64924" lon="3.43438">
        <ele>621.15</ele>
        <time>2014-03-23T09:50:18Z</time>
      </trkpt>
      <trkpt lat="45.64907" lon="3.43465">
        <ele>623.07</ele>
        <time>2014-03-23T09:50:33Z</time>
      </trkpt>
      <trkpt lat="45.64891" lon="3.43489">
        <ele>625.96</ele>
        <time>2014-03-23T09:50:48Z</time>
      </trkpt>
      <trkpt lat="45.64872" lon="3.43511">
        <ele>629.32</ele>
        <time>2014-03-23T09:51:01Z</time>
      </trkpt>
      <trkpt lat="45.64848" lon="3.43538">
        <ele>630.76</ele>
        <time>2014-03-23T09:51:17Z</time>
      </trkpt>
      <trkpt lat="45.64835" lon="3.4355">
        <ele>634.13</ele>
        <time>2014-03-23T09:51:25Z</time>
      </trkpt>
      <trkpt lat="45.64821" lon="3.43567">
        <ele>637.49</ele>
        <time>2014-03-23T09:51:36Z</time>
      </trkpt>
      <trkpt lat="45.64804" lon="3.43586">
        <ele>640.38</ele>
        <time>2014-03-23T09:51:50Z</time>
      </trkpt>
      <trkpt lat="45.64788" lon="3.43596">
        <ele>643.74</ele>
        <time>2014-03-23T09:52:01Z</time>
      </trkpt>
      <trkpt lat="45.64767" lon="3.43609">
        <ele>646.62</ele>
        <time>2014-03-23T09:52:15Z</time>
      </trkpt>
      <trkpt lat="45.64763" lon="3.43612">
        <ele>647.1</ele>
        <time>2014-03-23T09:52:18Z</time>
      </trkpt>
      <trkpt lat="45.64755" lon="3.4362">
        <ele>648.07</ele>
        <time>2014-03-23T09:52:23Z</time>
      </trkpt>
      <trkpt lat="45.6473" lon="3.43625">
        <ele>649.99</ele>
        <time>2014-03-23T09:52:38Z</time>
      </trkpt>
      <trkpt lat="45.64705" lon="3.43621">
        <ele>653.35</ele>
        <time>2014-03-23T09:52:53Z</time>
      </trkpt>
      <trkpt lat="45.64695" lon="3.43617">
        <ele>654.8</ele>
        <time>2014-03-23T09:53:00Z</time>
      </trkpt>
      <trkpt lat="45.6469" lon="3.43617">
        <ele>655.28</ele>
        <time>2014-03-23T09:53:03Z</time>
      </trkpt>
      <trkpt lat="45.64668" lon="3.43606">
        <ele>657.68</ele>
        <time>2014-03-23T09:53:17Z</time>
      </trkpt>
      <trkpt lat="45.64645" lon="3.43596">
        <ele>660.08</ele>
        <time>2014-03-23T09:53:32Z</time>
      </trkpt>
      <trkpt lat="45.64628" lon="3.4359">
        <ele>662.49</ele>
        <time>2014-03-23T09:53:44Z</time>
      </trkpt>
      <trkpt lat="45.64617" lon="3.43587">
        <ele>663.93</ele>
        <time>2014-03-23T09:53:50Z</time>
      </trkpt>
      <trkpt lat="45.64607" lon="3.43586">
        <ele>665.37</ele>
        <time>2014-03-23T09:53:56Z</time>
      </trkpt>
      <trkpt lat="45.64598" lon="3.43582">
        <ele>666.33</ele>
        <time>2014-03-23T09:54:02Z</time>
      </trkpt>
      <trkpt lat="45.64577" lon="3.43575">
        <ele>669.7</ele>
        <time>2014-03-23T09:54:16Z</time>
      </trkpt>
      <trkpt lat="45.64572" lon="3.43573">
        <ele>670.18</ele>
        <time>2014-03-23T09:54:20Z</time>
      </trkpt>
      <trkpt lat="45.64567" lon="3.43574">
        <ele>671.14</ele>
        <time>2014-03-23T09:54:23Z</time>
      </trkpt>
      <trkpt lat="45.6456" lon="3.43573">
        <ele>671.62</ele>
        <time>2014-03-23T09:54:27Z</time>
      </trkpt>
      <trkpt lat="45.64528" lon="3.43575">
        <ele>672.58</ele>
        <time>2014-03-23T09:54:43Z</time>
      </trkpt>
      <trkpt lat="45.64496" lon="3.43578">
        <ele>672.1</ele>
        <time>2014-03-23T09:54:56Z</time>
      </trkpt>
      <trkpt lat="45.64478" lon="3.43554">
        <ele>674.98</ele>
        <time>2014-03-23T09:55:07Z</time>
      </trkpt>
      <trkpt lat="45.64465" lon="3.4354">
        <ele>675.94</ele>
        <time>2014-03-23T09:55:15Z</time>
      </trkpt>
      <trkpt lat="45.64466" lon="3.43528">
        <ele>677.39</ele>
        <time>2014-03-23T09:55:24Z</time>
      </trkpt>
      <trkpt lat="45.64479" lon="3.43533">
        <ele>677.87</ele>
        <time>2014-03-23T09:55:39Z</time>
      </trkpt>
      <trkpt lat="45.6448" lon="3.43534">
        <ele>677.87</ele>
        <time>2014-03-23T09:55:56Z</time>
      </trkpt>
      <trkpt lat="45.64489" lon="3.43539">
        <ele>677.87</ele>
        <time>2014-03-23T09:56:15Z</time>
      </trkpt>
      <trkpt lat="45.64493" lon="3.4354">
        <ele>678.35</ele>
        <time>2014-03-23T09:56:40Z</time>
      </trkpt>
      <trkpt lat="45.64482" lon="3.43538">
        <ele>678.35</ele>
        <time>2014-03-23T09:57:03Z</time>
      </trkpt>
      <trkpt lat="45.64474" lon="3.43535">
        <ele>677.87</ele>
        <time>2014-03-23T09:57:10Z</time>
      </trkpt>
      <trkpt lat="45.64464" lon="3.43526">
        <ele>677.39</ele>
        <time>2014-03-23T09:57:20Z</time>
      </trkpt>
      <trkpt lat="45.64458" lon="3.43525">
        <ele>676.91</ele>
        <time>2014-03-23T09:57:24Z</time>
      </trkpt>
      <trkpt lat="45.64439" lon="3.43513">
        <ele>675.94</ele>
        <time>2014-03-23T09:57:41Z</time>
      </trkpt>
      <trkpt lat="45.64418" lon="3.43496">
        <ele>674.98</ele>
        <time>2014-03-23T09:57:58Z</time>
      </trkpt>
      <trkpt lat="45.64396" lon="3.43476">
        <ele>674.5</ele>
        <time>2014-03-23T09:58:14Z</time>
      </trkpt>
      <trkpt lat="45.64381" lon="3.4346">
        <ele>674.5</ele>
        <time>2014-03-23T09:58:29Z</time>
      </trkpt>
      <trkpt lat="45.64371" lon="3.43455">
        <ele>674.98</ele>
        <time>2014-03-23T09:58:38Z</time>
      </trkpt>
      <trkpt lat="45.64346" lon="3.43463">
        <ele>676.91</ele>
        <time>2014-03-23T09:58:54Z</time>
      </trkpt>
      <trkpt lat="45.64339" lon="3.43471">
        <ele>676.42</ele>
        <time>2014-03-23T09:59:01Z</time>
      </trkpt>
      <trkpt lat="45.64336" lon="3.43472">
        <ele>675.94</ele>
        <time>2014-03-23T09:59:04Z</time>
      </trkpt>
      <trkpt lat="45.64318" lon="3.43485">
        <ele>676.42</ele>
        <time>2014-03-23T09:59:20Z</time>
      </trkpt>
    </trkseg>
  </trk>
</gpx>